Time;durP1;ratioP1;P1;durP2;ratioP2;P2;SDS_P1;SDS_P2;PMS_P1;PMS_P2;Temp;Humidity;BMP_temperature;BMP_pressure;BME280_temperature;BME280_humidity;BME280_pressure;Samples;Min_cycle;Max_cycle;Signal;HPM_P1;HPM_P2
2023/09/23 00:02:09;;;;;;;;;0.00;0.00;;;;;;;;5126177;27;8746;-76
2023/09/23 00:04:35;;;;;;;;;1.00;1.00;;;;;;;;5126554;27;10466;-76
2023/09/23 00:07:01;;;;;;;;;1.00;1.00;;;;;;;;5124470;28;10565;-76
2023/09/23 00:09:28;;;;;;;;;2.75;1.25;;;;;;;;5126663;27;10509;-76
2023/09/23 00:11:54;;;;;;;;;1.75;1.75;;;;;;;;5125165;28;8768;-75
2023/09/23 00:14:19;;;;;;;;;1.50;0.00;;;;;;;;5126334;27;10726;-76
2023/09/23 00:16:46;;;;;;;;;2.00;1.00;;;;;;;;5124210;28;10181;-76
2023/09/23 00:19:12;;;;;;;;;0.25;0.25;;;;;;;;5125051;28;8739;-76
2023/09/23 00:21:37;;;;;;;;;2.50;1.00;;;;;;;;5124296;28;10533;-76
2023/09/23 00:24:02;;;;;;;;;0.75;0.50;;;;;;;;5126011;27;9539;-76
2023/09/23 00:26:28;;;;;;;;;7.00;1.00;;;;;;;;5124260;27;8790;-76
2023/09/23 00:28:53;;;;;;;;;1.00;1.00;;;;;;;;5125192;28;8893;-76
2023/09/23 00:31:19;;;;;;;;;1.50;1.00;;;;;;;;5104033;27;8867;-78
2023/09/23 00:33:44;;;;;;;;;2.75;1.75;;;;;;;;5104171;28;8826;-75
2023/09/23 00:36:10;;;;;;;;;3.00;1.25;;;;;;;;5103804;28;8878;-76
2023/09/23 00:38:36;;;;;;;;;2.25;2.25;;;;;;;;5104599;28;8741;-76
2023/09/23 00:41:03;;;;;;;;;3.00;1.00;;;;;;;;5104481;28;10706;-75
2023/09/23 00:43:28;;;;;;;;;2.00;1.50;;;;;;;;5102672;28;8798;-76
2023/09/23 00:45:58;;;;;;;;;1.25;1.00;;;;;;;;5103490;28;10733;-76
2023/09/23 00:48:24;;;;;;;;;3.50;2.00;;;;;;;;5104385;28;8766;-76
2023/09/23 00:50:50;;;;;;;;;1.25;1.00;;;;;;;;5102005;28;10692;-76
2023/09/23 00:53:16;;;;;;;;;0.00;0.00;;;;;;;;5104407;28;8762;-75
2023/09/23 00:55:52;;;;;;;;;1.00;1.00;;;;;;;;5101810;28;10817;-76
2023/09/23 00:58:20;;;;;;;;;0.00;0.00;;;;;;;;5102869;28;8726;-76
2023/09/23 01:00:48;;;;;;;;;0.00;0.00;;;;;;;;5103552;28;10512;-76
2023/09/23 01:03:15;;;;;;;;;2.00;1.00;;;;;;;;5102668;28;10326;-76
2023/09/23 01:05:40;;;;;;;;;0.00;0.00;;;;;;;;5101815;28;10377;-76
2023/09/23 01:08:07;;;;;;;;;1.25;0.00;;;;;;;;5102353;28;10233;-76
2023/09/23 01:10:32;;;;;;;;;0.00;0.00;;;;;;;;5104021;28;8726;-76
2023/09/23 01:12:59;;;;;;;;;0.00;0.00;;;;;;;;5103551;28;10670;-76
2023/09/23 01:15:31;;;;;;;;;1.00;0.00;;;;;;;;5102597;28;10352;-76
2023/09/23 01:17:57;;;;;;;;;0.75;0.00;;;;;;;;5103343;28;11603;-76
2023/09/23 01:20:22;;;;;;;;;0.00;0.00;;;;;;;;5101889;28;10476;-76
2023/09/23 01:22:48;;;;;;;;;0.00;0.00;;;;;;;;5103805;28;10505;-76
2023/09/23 01:25:14;;;;;;;;;0.00;0.00;;;;;;;;5056590;28;1313632;-76
2023/09/23 01:27:39;;;;;;;;;1.00;0.00;;;;;;;;5104422;28;8785;-76
2023/09/23 01:30:06;;;;;;;;;0.00;0.00;;;;;;;;5112015;27;9644;-76
2023/09/23 01:32:37;;;;;;;;;0.00;0.00;;;;;;;;5125018;28;8723;-76
2023/09/23 01:35:03;;;;;;;;;1.00;0.00;;;;;;;;5123058;28;10616;-76
2023/09/23 01:37:29;;;;;;;;;0.00;0.00;;;;;;;;5125139;28;10453;-76
2023/09/23 01:39:54;;;;;;;;;0.00;0.00;;;;;;;;5124806;27;10530;-76
2023/09/23 01:42:20;;;;;;;;;0.50;0.00;;;;;;;;5123536;28;8817;-76
2023/09/23 01:44:46;;;;;;;;;0.00;0.00;;;;;;;;5125198;27;8818;-77
2023/09/23 01:47:11;;;;;;;;;0.00;0.00;;;;;;;;5124300;27;10219;-76
2023/09/23 01:49:37;;;;;;;;;1.00;0.00;;;;;;;;5124476;27;8803;-76
2023/09/23 01:52:03;;;;;;;;;0.00;0.00;;;;;;;;5124616;27;8752;-75
2023/09/23 01:54:28;;;;;;;;;0.00;0.00;;;;;;;;5123440;27;10612;-76
2023/09/23 01:56:54;;;;;;;;;0.00;0.00;;;;;;;;5124495;28;8778;-76
2023/09/23 01:59:20;;;;;;;;;1.00;1.00;;;;;;;;5123262;28;8787;-76
2023/09/23 02:01:45;;;;;;;;;0.00;0.00;;;;;;;;5122916;28;8821;-75
2023/09/23 02:04:11;;;;;;;;;1.00;0.00;;;;;;;;5123703;27;8824;-76
2023/09/23 02:06:43;;;;;;;;;0.00;0.00;;;;;;;;5124537;27;8775;-76
2023/09/23 02:09:11;;;;;;;;;1.50;0.00;;;;;;;;5124285;27;8739;-76
2023/09/23 02:11:40;;;;;;;;;0.00;0.00;;;;;;;;5124802;27;10509;-76
2023/09/23 02:14:05;;;;;;;;;1.50;0.00;;;;;;;;5124162;27;10705;-76
2023/09/23 02:16:31;;;;;;;;;2.25;0.00;;;;;;;;5124035;27;10595;-76
2023/09/23 02:18:56;;;;;;;;;1.00;0.00;;;;;;;;5122721;28;8826;-76
2023/09/23 02:21:21;;;;;;;;;0.00;0.00;;;;;;;;5124308;27;8913;-76
2023/09/23 02:23:46;;;;;;;;;1.00;0.00;;;;;;;;5122750;28;10261;-76
2023/09/23 02:26:12;;;;;;;;;2.25;0.00;;;;;;;;5123101;27;8787;-76
2023/09/23 02:28:38;;;;;;;;;0.00;0.00;;;;;;;;5122990;28;9604;-76
2023/09/23 02:31:03;;;;;;;;;0.00;0.00;;;;;;;;5123875;27;8817;-76
2023/09/23 02:33:30;;;;;;;;;1.25;0.00;;;;;;;;5123202;27;10760;-76
2023/09/23 02:35:56;;;;;;;;;0.00;0.00;;;;;;;;5124364;27;8779;-76
2023/09/23 02:38:22;;;;;;;;;0.00;0.00;;;;;;;;5122586;28;10642;-76
2023/09/23 02:40:49;;;;;;;;;1.00;0.00;;;;;;;;5124344;27;10835;-76
2023/09/23 02:43:18;;;;;;;;;1.00;0.00;;;;;;;;5123440;27;8771;-76
2023/09/23 02:45:44;;;;;;;;;1.00;1.00;;;;;;;;5123920;27;10660;-76
2023/09/23 02:48:11;;;;;;;;;1.00;0.00;;;;;;;;5122120;28;10618;-76
2023/09/23 02:50:37;;;;;;;;;0.00;0.00;;;;;;;;5123834;27;8724;-76
2023/09/23 02:53:02;;;;;;;;;1.50;0.00;;;;;;;;5122625;28;10768;-76
2023/09/23 02:55:27;;;;;;;;;1.00;1.00;;;;;;;;5122833;27;8787;-76
2023/09/23 02:57:55;;;;;;;;;0.00;0.00;;;;;;;;5123887;27;9530;-76
2023/09/23 03:00:22;;;;;;;;;1.00;0.25;;;;;;;;5123226;27;8807;-76
2023/09/23 03:02:55;;;;;;;;;1.00;0.00;;;;;;;;5122224;28;10661;-76
2023/09/23 03:05:26;;;;;;;;;0.00;0.00;;;;;;;;5123251;27;10658;-76
2023/09/23 03:07:52;;;;;;;;;0.00;0.00;;;;;;;;5123681;27;10813;-76
2023/09/23 03:10:30;;;;;;;;;1.50;0.00;;;;;;;;5123910;27;10639;-76
2023/09/23 03:13:02;;;;;;;;;4.00;0.00;;;;;;;;5122538;28;8794;-76
2023/09/23 03:15:33;;;;;;;;;0.00;0.00;;;;;;;;5123109;27;10756;-76
2023/09/23 03:18:00;;;;;;;;;1.00;0.75;;;;;;;;5123247;27;10397;-76
2023/09/23 03:20:26;;;;;;;;;2.00;0.00;;;;;;;;5123388;27;10609;-76
2023/09/23 03:22:52;;;;;;;;;0.75;0.00;;;;;;;;5123682;27;10823;-76
2023/09/23 03:25:18;;;;;;;;;0.00;0.00;;;;;;;;5122636;27;11392;-76
2023/09/23 03:27:43;;;;;;;;;0.00;0.00;;;;;;;;5121518;28;10808;-76
2023/09/23 03:30:12;;;;;;;;;0.00;0.00;;;;;;;;5113260;27;8801;-76
2023/09/23 03:32:37;;;;;;;;;0.00;0.00;;;;;;;;5101020;28;10045;-76
2023/09/23 03:35:03;;;;;;;;;0.75;0.75;;;;;;;;5103035;28;10667;-76
2023/09/23 03:37:29;;;;;;;;;0.75;0.00;;;;;;;;5101428;28;8810;-76
2023/09/23 03:39:55;;;;;;;;;0.00;0.00;;;;;;;;5101303;28;8765;-76
2023/09/23 03:42:20;;;;;;;;;2.00;0.00;;;;;;;;5102798;28;11004;-76
2023/09/23 03:44:46;;;;;;;;;0.00;0.00;;;;;;;;5102033;28;8826;-76
2023/09/23 03:47:11;;;;;;;;;0.75;0.75;;;;;;;;5102065;28;8827;-76
2023/09/23 03:49:36;;;;;;;;;0.00;0.00;;;;;;;;5102855;28;8773;-76
2023/09/23 03:52:05;;;;;;;;;0.00;0.00;;;;;;;;5102617;28;8800;-76
2023/09/23 03:54:31;;;;;;;;;1.00;0.00;;;;;;;;5101983;28;8777;-76
2023/09/23 03:56:57;;;;;;;;;1.00;0.00;;;;;;;;5102511;28;10760;-76
2023/09/23 03:59:22;;;;;;;;;1.00;0.00;;;;;;;;5100666;28;8871;-76
2023/09/23 04:01:48;;;;;;;;;1.50;0.00;;;;;;;;5102062;28;10886;-77
2023/09/23 04:04:13;;;;;;;;;0.75;0.75;;;;;;;;5102806;28;8837;-76
2023/09/23 04:06:38;;;;;;;;;0.00;0.00;;;;;;;;5102170;28;8895;-76
2023/09/23 04:09:09;;;;;;;;;0.00;0.00;;;;;;;;5102560;28;8774;-76
2023/09/23 04:11:35;;;;;;;;;1.00;0.00;;;;;;;;5102448;28;8809;-76
2023/09/23 04:14:00;;;;;;;;;0.00;0.00;;;;;;;;5102068;28;10692;-76
2023/09/23 04:16:26;;;;;;;;;0.75;0.00;;;;;;;;5103363;27;8888;-76
2023/09/23 04:18:51;;;;;;;;;0.00;0.00;;;;;;;;5123016;28;8735;-76
2023/09/23 04:21:17;;;;;;;;;0.00;0.00;;;;;;;;5124886;28;11456;-76
2023/09/23 04:23:43;;;;;;;;;1.50;0.25;;;;;;;;5126135;27;8795;-75
2023/09/23 04:26:08;;;;;;;;;0.50;0.00;;;;;;;;5123833;28;9717;-76
2023/09/23 04:28:33;;;;;;;;;0.25;0.25;;;;;;;;5125152;27;8893;-76
2023/09/23 04:30:59;;;;;;;;;0.00;0.00;;;;;;;;5125460;27;8795;-76
2023/09/23 04:33:28;;;;;;;;;0.50;0.00;;;;;;;;5126279;28;8795;-76
2023/09/23 04:35:56;;;;;;;;;0.00;0.00;;;;;;;;5125786;27;8767;-76
2023/09/23 04:38:22;;;;;;;;;0.00;0.00;;;;;;;;5125711;28;10832;-76
2023/09/23 04:40:48;;;;;;;;;0.75;0.00;;;;;;;;5125917;27;11135;-76
2023/09/23 04:43:13;;;;;;;;;0.00;0.00;;;;;;;;5124024;28;8889;-76
2023/09/23 04:45:38;;;;;;;;;1.25;0.00;;;;;;;;5125904;28;8798;-76
2023/09/23 04:48:04;;;;;;;;;0.00;0.00;;;;;;;;5125438;28;8835;-75
2023/09/23 04:50:29;;;;;;;;;0.75;0.00;;;;;;;;5125902;28;8739;-76
2023/09/23 04:52:55;;;;;;;;;2.00;1.00;;;;;;;;5124202;28;11478;-76
2023/09/23 04:55:21;;;;;;;;;0.25;0.25;;;;;;;;5125221;28;8914;-76
2023/09/23 04:57:46;;;;;;;;;0.00;0.00;;;;;;;;5124981;28;8801;-76
2023/09/23 05:00:16;;;;;;;;;0.00;0.00;;;;;;;;5125656;28;11086;-76
2023/09/23 05:02:41;;;;;;;;;0.75;0.75;;;;;;;;5125480;28;8763;-76
2023/09/23 05:05:09;;;;;;;;;2.00;0.00;;;;;;;;5125458;28;10868;-76
2023/09/23 05:07:34;;;;;;;;;0.00;0.00;;;;;;;;5125734;28;8719;-76
2023/09/23 05:10:00;;;;;;;;;0.00;0.00;;;;;;;;5125359;28;10814;-76
2023/09/23 05:12:25;;;;;;;;;0.00;0.00;;;;;;;;5124769;28;8807;-76
2023/09/23 05:14:51;;;;;;;;;0.75;0.00;;;;;;;;5124257;28;8817;-76
2023/09/23 05:17:17;;;;;;;;;1.00;0.00;;;;;;;;5124979;28;8771;-76
2023/09/23 05:19:43;;;;;;;;;1.00;1.00;;;;;;;;5124079;28;11069;-76
2023/09/23 05:22:10;;;;;;;;;0.50;0.00;;;;;;;;5125173;28;8779;-76
2023/09/23 05:24:35;;;;;;;;;0.00;0.00;;;;;;;;5124520;28;10891;-76
2023/09/23 05:27:01;;;;;;;;;0.00;0.00;;;;;;;;5124117;27;10467;-76
2023/09/23 05:29:26;;;;;;;;;0.25;0.25;;;;;;;;5120881;27;9604;-76
2023/09/23 05:31:52;;;;;;;;;0.75;0.00;;;;;;;;5103929;28;8773;-76
2023/09/23 05:34:20;;;;;;;;;0.75;0.00;;;;;;;;5103179;28;8823;-76
2023/09/23 05:36:46;;;;;;;;;2.00;0.00;;;;;;;;5104800;28;8808;-76
2023/09/23 05:39:14;;;;;;;;;1.00;1.00;;;;;;;;5104566;28;10710;-76
2023/09/23 05:41:39;;;;;;;;;0.00;0.00;;;;;;;;5102593;28;8782;-76
2023/09/23 05:44:05;;;;;;;;;1.50;0.00;;;;;;;;5104469;28;10636;-76
2023/09/23 05:46:30;;;;;;;;;1.00;0.00;;;;;;;;5102558;28;8801;-76
2023/09/23 05:48:56;;;;;;;;;0.00;0.00;;;;;;;;5104447;28;8798;-76
2023/09/23 05:51:21;;;;;;;;;0.00;0.00;;;;;;;;5104326;28;8794;-76
2023/09/23 05:53:46;;;;;;;;;0.50;0.00;;;;;;;;5104558;28;8892;-76
2023/09/23 05:56:12;;;;;;;;;0.25;0.25;;;;;;;;5102992;28;8766;-76
2023/09/23 05:58:37;;;;;;;;;0.00;0.00;;;;;;;;5102640;28;10256;-76
2023/09/23 06:01:02;;;;;;;;;1.00;1.00;;;;;;;;5103981;28;8801;-76
2023/09/23 06:03:28;;;;;;;;;0.00;0.00;;;;;;;;5102538;28;8818;-76
2023/09/23 06:05:53;;;;;;;;;0.00;0.00;;;;;;;;5104397;28;8809;-76
2023/09/23 06:08:18;;;;;;;;;0.00;0.00;;;;;;;;5102256;28;10189;-76
2023/09/23 06:10:43;;;;;;;;;0.00;0.00;;;;;;;;5103615;28;8809;-76
2023/09/23 06:13:09;;;;;;;;;1.25;1.00;;;;;;;;5103600;28;8798;-76
2023/09/23 06:15:35;;;;;;;;;2.00;0.00;;;;;;;;5102750;28;8816;-76
2023/09/23 06:18:00;;;;;;;;;1.00;1.00;;;;;;;;5103519;28;8785;-76
2023/09/23 06:20:26;;;;;;;;;0.50;0.00;;;;;;;;5102275;28;8824;-76
2023/09/23 06:22:51;;;;;;;;;0.00;0.00;;;;;;;;5103933;28;8793;-76
2023/09/23 06:25:17;;;;;;;;;0.25;0.00;;;;;;;;5101230;28;8825;-76
2023/09/23 06:27:42;;;;;;;;;0.00;0.00;;;;;;;;5102368;28;10043;-76
2023/09/23 06:30:08;;;;;;;;;1.50;0.00;;;;;;;;5111790;27;9014;-77
2023/09/23 06:32:34;;;;;;;;;1.25;0.00;;;;;;;;5122150;28;8783;-76
2023/09/23 06:34:59;;;;;;;;;1.75;0.00;;;;;;;;5122756;28;8818;-76
2023/09/23 06:37:24;;;;;;;;;0.00;0.00;;;;;;;;5124032;27;9301;-77
2023/09/23 06:39:49;;;;;;;;;2.00;1.00;;;;;;;;5122304;28;8860;-77
2023/09/23 06:42:15;;;;;;;;;0.75;0.75;;;;;;;;5123631;28;8838;-77
2023/09/23 06:44:42;;;;;;;;;1.75;0.25;;;;;;;;5123610;27;8791;-76
2023/09/23 06:47:07;;;;;;;;;0.75;0.75;;;;;;;;5123676;27;11092;-76
2023/09/23 06:49:32;;;;;;;;;0.50;0.00;;;;;;;;5122439;28;11008;-76
2023/09/23 06:51:58;;;;;;;;;1.75;1.00;;;;;;;;5123792;27;8791;-77
2023/09/23 06:54:23;;;;;;;;;2.00;1.00;;;;;;;;5122236;27;8806;-77
2023/09/23 06:56:48;;;;;;;;;0.00;0.00;;;;;;;;5123911;27;8861;-76
2023/09/23 06:59:13;;;;;;;;;2.00;2.00;;;;;;;;5123846;27;8972;-76
2023/09/23 07:01:38;;;;;;;;;3.00;0.00;;;;;;;;5122923;27;9448;-76
2023/09/23 07:04:05;;;;;;;;;2.50;1.00;;;;;;;;5122475;28;8838;-77
2023/09/23 07:06:31;;;;;;;;;4.00;1.00;;;;;;;;5123617;27;8860;-77
2023/09/23 07:08:56;;;;;;;;;0.00;0.00;;;;;;;;5121939;28;10611;-77
2023/09/23 07:11:23;;;;;;;;;2.00;1.00;;;;;;;;5122156;28;8911;-77
2023/09/23 07:13:48;;;;;;;;;0.00;0.00;;;;;;;;5123344;27;8779;-76
2023/09/23 07:16:14;;;;;;;;;0.50;0.50;;;;;;;;5123421;27;10661;-77
2023/09/23 07:18:39;;;;;;;;;2.50;0.00;;;;;;;;5121919;28;8815;-77
2023/09/23 07:21:04;;;;;;;;;0.75;0.50;;;;;;;;5122217;28;8961;-77
2023/09/23 07:23:29;;;;;;;;;5.25;4.75;;;;;;;;5121540;28;8904;-76
2023/09/23 07:25:55;;;;;;;;;2.50;1.00;;;;;;;;5122227;27;8826;-77
2023/09/23 07:28:20;;;;;;;;;1.00;1.00;;;;;;;;5123624;27;8884;-77
2023/09/23 07:30:45;;;;;;;;;1.00;1.00;;;;;;;;5123062;27;8876;-77
2023/09/23 07:33:11;;;;;;;;;0.00;0.00;;;;;;;;5123108;28;8952;-76
2023/09/23 07:35:36;;;;;;;;;0.00;0.00;;;;;;;;5123438;28;8807;-77
2023/09/23 07:38:02;;;;;;;;;0.00;0.00;;;;;;;;5122918;28;8791;-77
2023/09/23 07:40:28;;;;;;;;;0.00;0.00;;;;;;;;5121957;28;8881;-76
2023/09/23 07:42:53;;;;;;;;;2.00;1.00;;;;;;;;5123047;28;10343;-76
2023/09/23 07:45:19;;;;;;;;;0.75;0.25;;;;;;;;5121745;27;8818;-77
2023/09/23 07:47:44;;;;;;;;;0.50;0.50;;;;;;;;5122868;27;8799;-77
2023/09/23 07:50:09;;;;;;;;;1.00;0.00;;;;;;;;5121791;28;8799;-77
2023/09/23 07:52:34;;;;;;;;;1.00;1.00;;;;;;;;5121206;28;9508;-77
2023/09/23 07:55:00;;;;;;;;;2.25;0.25;;;;;;;;5125547;27;9472;-77
2023/09/23 07:57:25;;;;;;;;;1.00;1.00;;;;;;;;5126565;27;8791;-77
2023/09/23 07:59:51;;;;;;;;;3.50;1.00;;;;;;;;5126288;27;8813;-77
2023/09/23 08:02:16;;;;;;;;;1.00;1.00;;;;;;;;5126537;27;8775;-77
2023/09/23 08:04:41;;;;;;;;;0.00;0.00;;;;;;;;5126281;27;8822;-77
2023/09/23 08:07:06;;;;;;;;;1.75;0.50;;;;;;;;5125985;27;8799;-77
2023/09/23 08:09:32;;;;;;;;;2.50;0.00;;;;;;;;5126419;27;8880;-77
2023/09/23 08:11:57;;;;;;;;;1.00;0.00;;;;;;;;5121641;27;8829;-77
2023/09/23 08:14:22;;;;;;;;;1.25;0.00;;;;;;;;5105883;28;8822;-76
2023/09/23 08:16:49;;;;;;;;;2.50;1.00;;;;;;;;5105513;28;9615;-76
2023/09/23 08:19:16;;;;;;;;;0.75;0.00;;;;;;;;5106154;28;8912;-77
2023/09/23 08:21:41;;;;;;;;;0.00;0.00;;;;;;;;5105769;28;10335;-76
2023/09/23 08:24:06;;;;;;;;;2.00;0.50;;;;;;;;5105554;28;10583;-76
2023/09/23 08:26:32;;;;;;;;;0.00;0.00;;;;;;;;5103537;28;8806;-77
2023/09/23 08:28:57;;;;;;;;;1.00;0.00;;;;;;;;5105546;28;8793;-77
2023/09/23 08:31:23;;;;;;;;;2.00;0.25;;;;;;;;5121137;27;8863;-77
2023/09/23 08:33:48;;;;;;;;;0.00;0.00;;;;;;;;5103887;28;9969;-77
2023/09/23 08:36:13;;;;;;;;;0.00;0.00;;;;;;;;5105565;28;8818;-76
2023/09/23 08:38:39;;;;;;;;;0.00;0.00;;;;;;;;5105704;28;8817;-77
2023/09/23 08:41:06;;;;;;;;;0.25;0.25;;;;;;;;5105665;28;8730;-77
2023/09/23 08:43:36;;;;;;;;;0.00;0.00;;;;;;;;5105877;28;10441;-77
2023/09/23 08:46:02;;;;;;;;;1.00;0.00;;;;;;;;5105205;28;10447;-77
2023/09/23 08:48:28;;;;;;;;;0.00;0.00;;;;;;;;5104369;28;10367;-77
2023/09/23 08:50:54;;;;;;;;;1.50;0.75;;;;;;;;5105434;28;8775;-76
2023/09/23 08:53:21;;;;;;;;;2.75;1.00;;;;;;;;5103974;28;10631;-77
2023/09/23 08:55:48;;;;;;;;;0.00;0.00;;;;;;;;5104696;28;8762;-77
2023/09/23 08:58:13;;;;;;;;;3.00;0.00;;;;;;;;5104890;28;10322;-76
2023/09/23 09:00:44;;;;;;;;;0.00;0.00;;;;;;;;5110697;28;10264;-76
2023/09/23 09:03:09;;;;;;;;;1.00;0.00;;;;;;;;5124811;28;8977;-77
2023/09/23 09:05:38;;;;;;;;;1.75;1.00;;;;;;;;5125428;27;10291;-76
2023/09/23 09:08:05;;;;;;;;;2.00;1.00;;;;;;;;5123936;28;8848;-76
2023/09/23 09:10:30;;;;;;;;;1.75;0.00;;;;;;;;5124225;28;10234;-77
2023/09/23 09:12:56;;;;;;;;;1.50;0.50;;;;;;;;5125293;27;10404;-76
2023/09/23 09:15:21;;;;;;;;;4.00;0.00;;;;;;;;5125484;27;8788;-77
2023/09/23 09:17:46;;;;;;;;;0.00;0.00;;;;;;;;5124778;27;8806;-77
2023/09/23 09:20:12;;;;;;;;;1.50;0.25;;;;;;;;5123964;28;8811;-76
2023/09/23 09:22:38;;;;;;;;;0.00;0.00;;;;;;;;5123833;28;10046;-77
2023/09/23 09:25:07;;;;;;;;;0.50;0.00;;;;;;;;5124342;27;8919;-77
2023/09/23 09:27:34;;;;;;;;;0.00;0.00;;;;;;;;5125201;27;8816;-77
2023/09/23 09:29:59;;;;;;;;;0.25;0.00;;;;;;;;5125327;27;10040;-77
2023/09/23 09:32:29;;;;;;;;;1.25;0.00;;;;;;;;5124303;28;10323;-77
2023/09/23 09:34:59;;;;;;;;;0.75;0.00;;;;;;;;5125339;28;9692;-77
2023/09/23 09:37:25;;;;;;;;;0.25;0.25;;;;;;;;5124767;28;10163;-76
2023/09/23 09:39:51;;;;;;;;;0.00;0.00;;;;;;;;5125346;27;10063;-77
2023/09/23 09:42:20;;;;;;;;;3.00;0.00;;;;;;;;5125045;27;10409;-77
2023/09/23 09:44:45;;;;;;;;;0.50;0.50;;;;;;;;5125306;27;11356;-77
2023/09/23 09:47:11;;;;;;;;;2.00;1.00;;;;;;;;5123773;28;9710;-76
2023/09/23 09:49:37;;;;;;;;;0.00;0.00;;;;;;;;5124865;28;8760;-77
2023/09/23 09:52:03;;;;;;;;;0.00;0.00;;;;;;;;5125099;28;10241;-77
2023/09/23 09:54:31;;;;;;;;;1.25;0.75;;;;;;;;5124000;28;10016;-77
2023/09/23 09:56:56;;;;;;;;;1.00;0.00;;;;;;;;5106712;28;9863;-77
2023/09/23 09:59:29;;;;;;;;;1.00;1.00;;;;;;;;5124876;28;10079;-77
2023/09/23 10:01:59;;;;;;;;;0.00;0.00;;;;;;;;5122566;28;10225;-76
2023/09/23 10:04:34;;;;;;;;;0.25;0.25;;;;;;;;5123032;28;10033;-76
2023/09/23 10:06:59;;;;;;;;;2.00;1.00;;;;;;;;5123442;28;10155;-76
2023/09/23 10:09:32;;;;;;;;;0.00;0.00;;;;;;;;5124632;28;10073;-76
2023/09/23 10:11:59;;;;;;;;;1.25;0.00;;;;;;;;5123284;28;10621;-76
2023/09/23 10:14:28;;;;;;;;;2.00;1.00;;;;;;;;5124291;27;10036;-76
2023/09/23 10:17:04;;;;;;;;;2.00;2.00;;;;;;;;5122824;28;9802;-76
2023/09/23 10:19:33;;;;;;;;;1.00;0.50;;;;;;;;5122871;28;10054;-76
2023/09/23 10:22:18;;;;;;;;;1.00;1.00;;;;;;;;5124494;28;10221;-76
2023/09/23 10:24:43;;;;;;;;;3.25;1.00;;;;;;;;5123392;27;10021;-76
2023/09/23 10:27:12;;;;;;;;;0.50;0.00;;;;;;;;5122790;28;10019;-76
2023/09/23 10:29:45;;;;;;;;;0.00;0.00;;;;;;;;5124147;27;8771;-76
2023/09/23 10:32:14;;;;;;;;;3.00;1.00;;;;;;;;5123467;27;10080;-76
2023/09/23 10:34:48;;;;;;;;;0.25;0.25;;;;;;;;5123889;27;9637;-76
2023/09/23 10:37:23;;;;;;;;;3.00;1.00;;;;;;;;5124063;28;9801;-75
2023/09/23 10:39:48;;;;;;;;;1.00;0.00;;;;;;;;5122865;28;9919;-76
2023/09/23 10:42:14;;;;;;;;;2.00;1.00;;;;;;;;5124330;27;9943;-76
2023/09/23 10:44:39;;;;;;;;;0.75;0.75;;;;;;;;5123411;27;8815;-76
2023/09/23 10:47:05;;;;;;;;;1.00;1.00;;;;;;;;5123581;27;8917;-76
2023/09/23 10:49:30;;;;;;;;;2.00;2.00;;;;;;;;5123971;27;8913;-76
2023/09/23 10:51:57;;;;;;;;;1.33;1.00;;;;;;;;5122652;28;10064;-76
2023/09/23 10:54:23;;;;;;;;;1.00;1.00;;;;;;;;5123379;27;8758;-76
2023/09/23 10:56:49;;;;;;;;;2.00;1.00;;;;;;;;5122262;28;9816;-76
2023/09/23 10:59:14;;;;;;;;;2.67;0.00;;;;;;;;5123650;27;9725;-77
2023/09/23 11:01:39;;;;;;;;;1.00;0.00;;;;;;;;5123321;27;8821;-76
2023/09/23 11:04:06;;;;;;;;;0.00;0.00;;;;;;;;5122605;28;8857;-77
2023/09/23 11:06:31;;;;;;;;;0.00;0.00;;;;;;;;5123747;27;8728;-77
2023/09/23 11:08:57;;;;;;;;;1.00;0.00;;;;;;;;5122210;28;9651;-76
2023/09/23 11:11:22;;;;;;;;;0.00;0.00;;;;;;;;5123706;27;8790;-77
2023/09/23 11:13:48;;;;;;;;;0.00;0.00;;;;;;;;5123062;27;8803;-77
2023/09/23 11:16:14;;;;;;;;;0.75;0.75;;;;;;;;5123984;27;8858;-77
2023/09/23 11:18:39;;;;;;;;;3.50;1.50;;;;;;;;5123121;27;9485;-77
2023/09/23 11:21:05;;;;;;;;;2.00;0.50;;;;;;;;5123476;27;8843;-77
2023/09/23 11:23:30;;;;;;;;;3.00;1.00;;;;;;;;5123578;27;8818;-77
2023/09/23 11:25:55;;;;;;;;;1.00;1.00;;;;;;;;5121199;28;9685;-77
2023/09/23 11:28:25;;;;;;;;;1.00;0.00;;;;;;;;5125389;27;8852;-77
2023/09/23 11:30:51;;;;;;;;;1.00;1.00;;;;;;;;5125302;27;10249;-77
2023/09/23 11:33:17;;;;;;;;;0.00;0.00;;;;;;;;5125608;28;9408;-77
2023/09/23 11:35:42;;;;;;;;;2.00;1.00;;;;;;;;5126517;27;9409;-77
2023/09/23 11:38:08;;;;;;;;;2.00;0.00;;;;;;;;5126943;27;8855;-77
2023/09/23 11:40:34;;;;;;;;;0.00;0.00;;;;;;;;5125864;28;10372;-77
2023/09/23 11:43:03;;;;;;;;;0.33;0.00;;;;;;;;5124703;28;9374;-77
2023/09/23 11:45:28;;;;;;;;;0.00;0.00;;;;;;;;5125477;28;8803;-77
2023/09/23 11:47:57;;;;;;;;;1.00;1.00;;;;;;;;5124946;28;9467;-77
2023/09/23 11:50:22;;;;;;;;;1.67;0.00;;;;;;;;5126786;27;8785;-77
2023/09/23 11:52:48;;;;;;;;;1.00;1.00;;;;;;;;5126917;27;9412;-77
2023/09/23 11:55:13;;;;;;;;;0.00;0.00;;;;;;;;5124729;28;8897;-77
2023/09/23 11:57:39;;;;;;;;;1.00;1.00;;;;;;;;5124603;27;8791;-77
2023/09/23 12:00:09;;;;;;;;;0.00;0.00;;;;;;;;5125108;28;11173;-77
2023/09/23 12:02:34;;;;;;;;;0.50;0.50;;;;;;;;5126370;27;9342;-77
2023/09/23 12:05:00;;;;;;;;;1.00;0.00;;;;;;;;5125025;28;9556;-76
2023/09/23 12:07:25;;;;;;;;;0.00;0.00;;;;;;;;5126751;27;8752;-77
2023/09/23 12:09:51;;;;;;;;;0.00;0.00;;;;;;;;5126453;27;8892;-77
2023/09/23 12:12:16;;;;;;;;;1.50;0.00;;;;;;;;5126000;27;8763;-77
2023/09/23 12:14:42;;;;;;;;;0.00;0.00;;;;;;;;5126747;27;9605;-77
2023/09/23 12:17:09;;;;;;;;;0.25;0.00;;;;;;;;5125857;27;8740;-77
2023/09/23 12:19:34;;;;;;;;;0.00;0.00;;;;;;;;5125049;28;10348;-77
2023/09/23 12:21:59;;;;;;;;;0.00;0.00;;;;;;;;5126388;27;10311;-77
2023/09/23 12:24:24;;;;;;;;;1.00;0.00;;;;;;;;5124046;28;8807;-77
2023/09/23 12:26:49;;;;;;;;;0.00;0.00;;;;;;;;5124240;28;8825;-77
2023/09/23 12:29:15;;;;;;;;;0.00;0.00;;;;;;;;5124489;27;9977;-77
2023/09/23 12:31:40;;;;;;;;;1.25;0.00;;;;;;;;5125898;28;8783;-77
2023/09/23 12:34:05;;;;;;;;;2.00;0.00;;;;;;;;5125914;28;8817;-77
2023/09/23 12:36:30;;;;;;;;;2.00;0.00;;;;;;;;5126122;28;8791;-77
2023/09/23 12:38:57;;;;;;;;;2.00;1.00;;;;;;;;5125493;28;8807;-77
2023/09/23 12:41:22;;;;;;;;;1.00;1.00;;;;;;;;5124176;28;8787;-77
2023/09/23 12:43:47;;;;;;;;;0.00;0.00;;;;;;;;5125713;28;9805;-77
2023/09/23 12:46:13;;;;;;;;;0.50;0.50;;;;;;;;5124518;28;8830;-77
2023/09/23 12:48:38;;;;;;;;;2.00;1.00;;;;;;;;5125503;28;8817;-77
2023/09/23 12:51:03;;;;;;;;;0.00;0.00;;;;;;;;5125803;28;9530;-77
2023/09/23 12:53:28;;;;;;;;;0.00;0.00;;;;;;;;5125955;28;8795;-77
2023/09/23 12:55:54;;;;;;;;;1.00;1.00;;;;;;;;5124472;28;8759;-77
2023/09/23 12:58:19;;;;;;;;;3.00;0.75;;;;;;;;5124061;28;10221;-77
2023/09/23 13:00:45;;;;;;;;;2.33;1.00;;;;;;;;5125931;28;8833;-77
2023/09/23 13:03:11;;;;;;;;;1.25;1.00;;;;;;;;5125344;28;8787;-77
2023/09/23 13:05:36;;;;;;;;;0.00;0.00;;;;;;;;5125712;28;8829;-77
2023/09/23 13:08:05;;;;;;;;;2.75;1.00;;;;;;;;5123913;28;10016;-77
2023/09/23 13:10:30;;;;;;;;;4.50;0.75;;;;;;;;5123928;28;8791;-77
2023/09/23 13:12:56;;;;;;;;;1.00;0.00;;;;;;;;5124705;28;9673;-77
2023/09/23 13:15:21;;;;;;;;;0.67;0.00;;;;;;;;5124248;28;8810;-77
2023/09/23 13:17:46;;;;;;;;;2.25;0.00;;;;;;;;5125048;28;8914;-77
2023/09/23 13:20:12;;;;;;;;;0.00;0.00;;;;;;;;5124067;28;8783;-77
2023/09/23 13:22:37;;;;;;;;;3.00;1.00;;;;;;;;5125431;28;8779;-77
2023/09/23 13:25:02;;;;;;;;;5.50;2.00;;;;;;;;5122513;28;8851;-77
2023/09/23 13:27:28;;;;;;;;;0.33;0.00;;;;;;;;5124793;27;8782;-77
2023/09/23 13:29:53;;;;;;;;;2.00;1.00;;;;;;;;5123833;27;8806;-77
2023/09/23 13:32:18;;;;;;;;;6.00;1.75;;;;;;;;5124817;28;8814;-77
2023/09/23 13:34:44;;;;;;;;;2.00;1.00;;;;;;;;5125425;27;8783;-77
2023/09/23 13:37:09;;;;;;;;;0.25;0.25;;;;;;;;5124909;27;8759;-77
2023/09/23 13:39:34;;;;;;;;;2.00;1.00;;;;;;;;5124590;27;8783;-77
2023/09/23 13:42:02;;;;;;;;;0.67;0.00;;;;;;;;5125056;28;9515;-77
2023/09/23 13:44:27;;;;;;;;;3.00;0.00;;;;;;;;5124847;27;8771;-78
2023/09/23 13:46:53;;;;;;;;;0.00;0.00;;;;;;;;5123280;28;10994;-77
2023/09/23 13:49:18;;;;;;;;;0.00;0.00;;;;;;;;5124893;27;8826;-77
2023/09/23 13:51:43;;;;;;;;;2.00;0.00;;;;;;;;5123697;27;8791;-77
2023/09/23 13:54:09;;;;;;;;;0.00;0.00;;;;;;;;5124492;27;8794;-77
2023/09/23 13:56:34;;;;;;;;;1.67;0.00;;;;;;;;5123730;27;8790;-77
2023/09/23 13:58:59;;;;;;;;;0.00;0.00;;;;;;;;5123344;28;8818;-76
2023/09/23 14:01:25;;;;;;;;;0.00;0.00;;;;;;;;5123246;28;8807;-76
2023/09/23 14:03:51;;;;;;;;;0.00;0.00;;;;;;;;5123019;28;8831;-76
2023/09/23 14:06:16;;;;;;;;;0.00;0.00;;;;;;;;5124864;27;8727;-76
2023/09/23 14:08:42;;;;;;;;;1.00;0.00;;;;;;;;5123786;27;8955;-76
2023/09/23 14:11:07;;;;;;;;;0.00;0.00;;;;;;;;5123167;28;8805;-76
2023/09/23 14:13:33;;;;;;;;;2.33;0.67;;;;;;;;5123294;28;8901;-76
2023/09/23 14:15:59;;;;;;;;;0.00;0.00;;;;;;;;5124710;27;8731;-76
2023/09/23 14:18:24;;;;;;;;;0.33;0.00;;;;;;;;5123983;27;9156;-76
2023/09/23 14:20:49;;;;;;;;;0.00;0.00;;;;;;;;5123201;28;8791;-76
2023/09/23 14:23:15;;;;;;;;;1.00;0.00;;;;;;;;5123844;27;8787;-76
2023/09/23 14:25:40;;;;;;;;;0.33;0.00;;;;;;;;5121797;28;8842;-76
2023/09/23 14:28:05;;;;;;;;;0.00;0.00;;;;;;;;5124423;27;8787;-76
2023/09/23 14:30:31;;;;;;;;;0.67;0.67;;;;;;;;5122811;27;8813;-76
2023/09/23 14:32:58;;;;;;;;;0.33;0.00;;;;;;;;5124075;28;8782;-76
2023/09/23 14:35:23;;;;;;;;;0.00;0.00;;;;;;;;5124474;28;8759;-76
2023/09/23 14:37:49;;;;;;;;;0.00;0.00;;;;;;;;5123186;27;9429;-76
2023/09/23 14:40:14;;;;;;;;;0.00;0.00;;;;;;;;5124461;28;8775;-76
2023/09/23 14:42:39;;;;;;;;;0.00;0.00;;;;;;;;5124217;28;8805;-76
2023/09/23 14:45:05;;;;;;;;;0.00;0.00;;;;;;;;5124273;28;8831;-77
2023/09/23 14:47:30;;;;;;;;;1.67;0.00;;;;;;;;5123380;28;8791;-76